AirNav   Everest Fuels
 
 364 users online  

1CA6 On the Rocks Airport
Alpine, California, USA

GOING TO ALPINE?


FAA INFORMATION EFFECTIVE 23 MAY 2019

Location

FAA Identifier: 1CA6
Lat/Long: 32-45-54.1950N / 116-43-21.0740W
32-45.903250N / 116-43.351233W
32.7650542 / -116.7225206
(estimated)
Elevation: 2650 ft. / 808 m (estimated)
Variation: 13E (1985)
From city: 5 miles SE of ALPINE, CA
Time zone: UTC -7 (UTC -8 during Standard Time)
Zip code: 91901

Airport Operations

Airport use: Private use. Permission required prior to landing
Activation date: 04/1990
Control tower: no
ARTCC: LOS ANGELES CENTER
FSS: SAN DIEGO FLIGHT SERVICE STATION
Attendance: UNATNDD
Wind indicator: yes
Segmented circle: no

Airport Communications

WX AWOS-3P at SEE (13 nm W): 125.45 (619-449-1228)
WX ASOS at SDM (17 nm SW): 132.35 (619-661-8297)
WX ASOS at RNM (19 nm NW): 132.025 (760-789-0736)

Nearby radio navigation aids

VOR radial/distance  VOR name  Freq  Var
PGYr040/15.9POGGI VORTAC109.8014E
TIJr027/17.8TIJUANA VOR/DME116.5014E
JLIr182/23.6JULIAN VORTAC114.0015E
MZBr077/25.4MISSION BAY VORTAC117.8015E

Airport Services

Runway Information

Runway 15/33

Dimensions: 2340 x 60 ft. / 713 x 18 m
Surface: gravel
Operational restrictions: LAND RY 15 ONLY; TKOF RY 33 ONLY. LEFT TURN ON DEPARTURE TO AVOID HOMES.
RUNWAY 15  RUNWAY 33
Traffic pattern: leftleft

Airport Ownership and Management from official FAA records

Ownership: Privately-owned
Owner: COVERT CANYON LLC
1464 GRAVES AVE STE 104
EL CAJON, CA 92021-8951
Phone 619-992-4570
Manager: MARC HALCON
1464 GRAVES AVE STE 104
EL CAJON, CA 92021-8951
Phone 619-992-4570

Airport Operational Statistics

Aircraft based on the field: 1
Single engine airplanes: 1
    

Instrument Procedures

There are no published instrument procedures at 1CA6.

Some nearby airports with instrument procedures:

KSEE - Gillespie Field Airport (13 nm W)
KSDM - Brown Field Municipal Airport (17 nm SW)
KRNM - Ramona Airport (19 nm NW)
KMYF - Montgomery-Gibbs Executive Airport (21 nm W)
KNKX - Miramar MCAS (Joe Foss Field) Airport (22 nm W)
 
Loc | Ops | Rwys | IFR | FBO | Links
Com | Nav | Svcs | Stats | Notes
Area around 1CA6 (On the Rocks Airport)
 
Road maps at: MapQuest Bing Google
 
Aerial photo
No photo
 
Sectional chart

 
Airport distance calculator
Flying to On the Rocks Airport? Find the distance to fly.

From to 1CA6

Sunrise and sunset
Times for 25-May-2019
 Local
(UTC-7)
 Zulu
(UTC)
Morning civil twilight05:1512:15
Sunrise05:4312:43
Sunset19:4402:44
Evening civil twilight20:1203:12

Current date and time
Zulu (UTC)  25-May-2019 10:10:57
Local (UTC-7)  25-May-2019 03:10:57
 
METAR
KSEE 
13nm W 
250955Z AUTO 29003KT 10SM 11/10 A2991 RMK AO2
KCZZ 
15nm SE 
250952Z AUTO 04005KT 07/05 A2986 RMK AO1 SLP092 T00670050
KSDM 
18nm SW 
250753Z AUTO 00000KT 10SM CLR 13/11 A2992 RMK AO2 SLP128 T01280106 402110083
MMTJ 
19nm SW 
250943Z 36003KT 7SM SKC 12/11 A2993 RMK HZY SC 2ND AND 3RD QUAD
KRNM 
19nm NW 
250953Z AUTO 00000KT 7SM CLR 09/07 A2991 RMK AO2 SLP118 T00940067
KMYF 
21nm W 
250953Z AUTO 00000KT 10SM CLR 13/10 A2991 RMK AO2 SLP126 T01280100
KNKX 
22nm W 
250955Z 00000KT 10SM CLR 12/08 A2990 RMK AO2 SLP121 T01170083 $
KNRS 
23nm SW 
250956Z AUTO 8SM -SN BKN020 A2992 RMK AO2 SLP133 PNO $
KSAN 
23nm W 
250951Z 00000KT 10SM FEW018 16/12 A2993 RMK AO2 SLP133 T01560117
KNZY 
25nm W 
250952Z AUTO 28003KT 10SM BKN018 15/12 A2991 RMK AO2 SLP126 T01500117 $
TAF
MMTJ 
19nm SW 
250434Z 2506/2612 26005KT 5SM HZ SCT015 TX20/2521Z TN11/2512Z TEMPO 2508/2512 BKN015 FM251600 30010KT P6SM SKC FM260300 30005KT 5SM HZ SCT015 FM260800 30005KT 5SM HZ BKN015
KNKX 
22nm W 
2503/2603 VRB05KT 9999 SCT020 QNH2988INS TEMPO 2503/2509 BKN015 BECMG 2509/2511 VRB05KT 9999 BKN015 QNH2986INS FM251830 25010KT 9999 FEW025 QNH2985INS TEMPO 2519/2523 25010G18KT T13/2512Z T19/2521Z
NOTAMs
Click for the latest NOTAMs
NOTAMs are issued by the DoD/FAA and will open in a separate window not controlled by AirNav.

 

 
 

Would you like to see your business listed on this page?

 If your business provides an interesting product or service to pilots, flight crews, aircraft, or users of the On the Rocks Airport, you should consider listing it here.  To start the listing process, click on the button below
 
Add a business
 

Other Pages about On the Rocks Airport

Update a link
 
Copyright © AirNav, LLC. All rights reserved. Privacy Policy  Contact